createdAt,value
2022-11-10T00:01:08.095Z,100598.31
2022-11-10T00:03:54.344Z,100600.94
2022-11-10T00:06:45.081Z,100597.41
2022-11-10T00:09:31.153Z,100596.37
2022-11-10T00:12:17.792Z,100606.75
2022-11-10T00:15:22.471Z,100604.31
2022-11-10T00:18:08.685Z,100606.00
2022-11-10T00:20:54.644Z,100602.34
2022-11-10T00:23:40.848Z,100598.06
2022-11-10T00:26:30.022Z,100591.97
2022-11-10T00:29:16.121Z,100597.94
2022-11-10T00:32:04.215Z,100590.09
2022-11-10T00:34:49.989Z,100595.34
2022-11-10T00:37:36.180Z,100583.94
2022-11-10T00:40:22.063Z,100586.34
2022-11-10T00:43:08.405Z,100586.72
2022-11-10T00:45:57.643Z,100596.44
2022-11-10T00:48:45.895Z,100591.97
2022-11-10T00:51:34.866Z,100593.66
2022-11-10T00:54:23.661Z,100591.78
2022-11-10T00:57:12.714Z,100591.12
2022-11-10T00:59:58.710Z,100594.69
2022-11-10T01:02:44.916Z,100601.59
2022-11-10T01:05:31.388Z,100591.97
2022-11-10T01:08:17.287Z,100597.03
2022-11-10T01:11:09.054Z,100596.28
2022-11-10T01:13:58.418Z,100591.97
2022-11-10T01:16:44.494Z,100595.53
2022-11-10T01:19:33.985Z,100600.56
2022-11-10T01:22:19.895Z,100604.13
2022-11-10T01:25:06.485Z,100606.69
2022-11-10T01:27:55.116Z,100603.84
2022-11-10T01:30:41.172Z,100603.19
2022-11-10T01:33:27.581Z,100596.28
2022-11-10T01:36:13.662Z,100598.91
2022-11-10T01:39:01.349Z,100592.53
2022-11-10T01:41:47.291Z,100595.34
2022-11-10T01:44:36.568Z,100594.41
2022-11-10T01:47:22.527Z,100593.47
2022-11-10T01:50:08.664Z,100585.59
2022-11-10T01:52:56.560Z,100583.47
2022-11-10T01:55:43.980Z,100586.25
2022-11-10T01:58:33.500Z,100588.09
2022-11-10T02:01:19.534Z,100580.53
2022-11-10T02:04:07.979Z,100577.81
2022-11-10T02:06:54.944Z,100582.94
2022-11-10T02:09:41.263Z,100575.97
2022-11-10T02:12:39.364Z,100582.03
2022-11-10T02:15:45.435Z,100585.56
2022-11-10T02:18:34.231Z,100583.91
2022-11-10T02:21:23.812Z,100584.72
2022-11-10T02:24:10.136Z,100577.81
2022-11-10T02:26:56.921Z,100584.09
2022-11-10T02:29:43.004Z,100575.28
2022-11-10T02:32:31.376Z,100586.59
2022-11-10T02:35:17.434Z,100587.81
2022-11-10T02:38:03.735Z,100571.91
2022-11-10T02:40:50.493Z,100573.78
2022-11-10T02:43:38.026Z,100574.72
2022-11-10T02:46:23.969Z,100573.78
2022-11-10T02:49:12.720Z,100581.91
2022-11-10T02:51:59.136Z,100580.31
2022-11-10T02:54:45.129Z,100579.66
2022-11-10T02:57:30.923Z,100578.91
2022-11-10T03:00:17.656Z,100582.34
2022-11-10T03:03:03.780Z,100589.87
2022-11-10T03:05:49.722Z,100585.50
2022-11-10T03:08:35.653Z,100591.25
2022-11-10T03:11:29.328Z,100599.94
2022-11-10T03:14:18.288Z,100592.06
2022-11-10T03:17:04.149Z,100599.84
2022-11-10T03:19:53.269Z,100604.31
2022-11-10T03:22:39.065Z,100603.66
2022-11-10T03:25:24.976Z,100604.50
2022-11-10T03:28:11.731Z,100606.37
2022-11-10T03:30:57.811Z,100602.06
2022-11-10T03:33:44.152Z,100606.37
2022-11-10T03:36:30.292Z,100604.84
2022-11-10T03:39:16.208Z,100607.56
2022-11-10T03:42:02.023Z,100614.91
2022-11-10T03:44:48.062Z,100608.72
2022-11-10T03:47:33.743Z,100615.56
2022-11-10T03:50:19.935Z,100609.22
2022-11-10T03:53:06.101Z,100603.69
2022-11-10T03:55:52.199Z,100608.72
2022-11-10T03:58:38.324Z,100607.91
2022-11-10T04:01:27.327Z,100600.88
2022-11-10T04:04:32.192Z,100606.31
2022-11-10T04:07:36.441Z,100601.16
2022-11-10T04:10:22.931Z,100603.69
2022-11-10T04:13:26.926Z,100604.78
2022-11-10T04:16:13.015Z,100601.41
2022-11-10T04:18:59.468Z,100599.13
2022-11-10T04:21:45.619Z,100607.13
2022-11-10T04:24:31.755Z,100605.28
2022-11-10T04:27:17.484Z,100605.12
2022-11-10T04:30:03.300Z,100606.28
2022-11-10T04:32:48.986Z,100604.69
2022-11-10T04:35:35.188Z,100609.75
2022-11-10T04:38:21.025Z,100614.06
2022-11-10T04:41:10.231Z,100606.63
2022-11-10T04:43:56.330Z,100609.66
2022-11-10T04:46:44.463Z,100610.09
2022-11-10T04:49:30.630Z,100609.97
2022-11-10T04:52:16.622Z,100603.41
2022-11-10T04:55:02.598Z,100602.66
2022-11-10T04:57:48.749Z,100620.72
2022-11-10T05:00:34.871Z,100612.69
2022-11-10T05:03:21.337Z,100613.06
2022-11-10T05:06:07.596Z,100614.91
2022-11-10T05:08:53.637Z,100615.84
2022-11-10T05:11:42.660Z,100616.13
2022-11-10T05:14:28.612Z,100617.50
2022-11-10T05:17:14.942Z,100624.13
2022-11-10T05:20:01.260Z,100623.69
2022-11-10T05:23:08.090Z,100618.47
2022-11-10T05:25:54.272Z,100622.16
2022-11-10T05:28:41.342Z,100632.28
2022-11-10T05:31:27.002Z,100627.06
2022-11-10T05:34:14.704Z,100648.19
2022-11-10T05:37:00.817Z,100646.47
2022-11-10T05:39:46.687Z,100641.13
2022-11-10T05:42:32.710Z,100637.72
2022-11-10T05:45:19.707Z,100632.44
2022-11-10T05:48:06.196Z,100633.78
2022-11-10T05:50:51.939Z,100629.19
2022-11-10T05:53:38.520Z,100633.53
2022-11-10T05:56:24.657Z,100627.22
2022-11-10T05:59:10.717Z,100634.53
2022-11-10T06:01:57.001Z,100634.66
2022-11-10T06:04:43.044Z,100636.06
2022-11-10T06:07:31.110Z,100635.78
2022-11-10T06:10:20.293Z,100629.22
2022-11-10T06:13:06.486Z,100628.28
2022-11-10T06:15:52.400Z,100630.19
2022-11-10T06:18:38.670Z,100619.69
2022-11-10T06:21:24.754Z,100608.53
2022-11-10T06:24:11.496Z,100615.28
2022-11-10T06:27:00.408Z,100612.44
2022-11-10T06:29:46.447Z,100611.22
2022-11-10T06:32:33.823Z,100622.38
2022-11-10T06:35:20.876Z,100621.84
2022-11-10T06:38:07.843Z,100622.50
2022-11-10T06:40:53.886Z,100621.56
2022-11-10T06:43:40.831Z,100620.94
2022-11-10T06:46:26.824Z,100622.41
2022-11-10T06:49:13.203Z,100621.62
2022-11-10T06:51:59.133Z,100626.38
2022-11-10T06:54:45.389Z,100614.72
2022-11-10T06:57:37.740Z,100613.47
2022-11-10T07:00:24.579Z,100606.31
2022-11-10T07:03:12.538Z,100610.13
2022-11-10T07:05:58.838Z,100614.91
2022-11-10T07:08:44.712Z,100631.38
2022-11-10T07:11:30.762Z,100622.41
2022-11-10T07:14:16.722Z,100625.69
2022-11-10T07:17:02.777Z,100629.72
2022-11-10T07:19:48.785Z,100626.06
2022-11-10T07:22:35.134Z,100638.03
2022-11-10T07:25:21.251Z,100637.09
2022-11-10T07:28:08.873Z,100638.75
2022-11-10T07:30:55.360Z,100634.22
2022-11-10T07:33:41.617Z,100627.66
2022-11-10T07:36:29.221Z,100632.28
2022-11-10T07:39:15.451Z,100621.44
2022-11-10T07:42:01.873Z,100616.06
2022-11-10T07:44:47.688Z,100610.16
2022-11-10T07:47:33.384Z,100608.66
2022-11-10T07:50:19.750Z,100608.03
2022-11-10T07:53:10.022Z,100607.38
2022-11-10T07:55:58.104Z,100600.75
2022-11-10T07:58:44.281Z,100601.91
2022-11-10T08:01:30.116Z,100612.03
2022-11-10T08:04:15.752Z,100612.63
2022-11-10T08:07:02.223Z,100619.22
2022-11-10T08:09:48.619Z,100602.13
2022-11-10T08:12:34.651Z,100609.13
2022-11-10T08:15:20.851Z,100611.16
2022-11-10T08:18:18.016Z,100611.84
2022-11-10T08:21:04.762Z,100606.37
2022-11-10T08:23:50.487Z,100607.66
2022-11-10T08:26:36.531Z,100616.50
2022-11-10T08:29:22.523Z,100615.25
2022-11-10T08:32:08.566Z,100612.06
2022-11-10T08:34:54.794Z,100608.56
2022-11-10T08:37:40.769Z,100613.06
2022-11-10T08:40:35.972Z,100614.22
2022-11-10T08:43:22.221Z,100618.03
2022-11-10T08:46:08.473Z,100615.22
2022-11-10T08:48:54.383Z,100607.94
2022-11-10T08:51:40.418Z,100600.66
2022-11-10T08:54:27.281Z,100599.94
2022-11-10T08:57:13.561Z,100603.75
2022-11-10T09:00:02.471Z,100599.91
2022-11-10T09:02:48.960Z,100593.06
2022-11-10T09:05:36.745Z,100591.47
2022-11-10T09:08:22.993Z,100597.66
2022-11-10T09:11:10.216Z,100600.28
2022-11-10T09:13:56.628Z,100596.44
2022-11-10T09:16:42.373Z,100595.78
2022-11-10T09:19:28.280Z,100594.16
2022-11-10T09:22:13.963Z,100596.00
2022-11-10T09:24:59.841Z,100601.62
2022-11-10T09:27:45.727Z,100600.28
2022-11-10T09:30:32.066Z,100590.09
2022-11-10T09:33:18.304Z,100591.03
2022-11-10T09:36:04.374Z,100598.34
2022-11-10T09:38:50.406Z,100585.03
2022-11-10T09:41:40.222Z,100585.87
2022-11-10T09:44:31.242Z,100588.47
2022-11-10T09:47:42.344Z,100583.34
2022-11-10T09:50:46.985Z,100591.97
2022-11-10T09:53:37.796Z,100580.59
2022-11-10T09:56:31.210Z,100591.97
2022-11-10T09:59:22.539Z,100596.66
2022-11-10T10:02:16.535Z,100596.87
2022-11-10T10:05:11.857Z,100593.13
2022-11-10T10:08:16.609Z,100599.41
2022-11-10T10:11:12.069Z,100593.13
2022-11-10T10:14:07.131Z,100585.22
2022-11-10T10:16:56.048Z,100587.97
2022-11-10T10:20:00.253Z,100586.69
2022-11-10T10:22:58.484Z,100584.28
2022-11-10T10:25:46.188Z,100581.97
2022-11-10T10:28:38.136Z,100579.59
2022-11-10T10:31:26.867Z,100571.53
2022-11-10T10:34:15.412Z,100571.59
2022-11-10T10:37:01.712Z,100580.22
2022-11-10T10:39:49.333Z,100578.16
2022-11-10T10:42:36.636Z,100581.06
2022-11-10T10:45:26.943Z,100581.56
2022-11-10T10:48:27.091Z,100577.34
2022-11-10T10:51:27.833Z,100572.09
2022-11-10T10:54:28.569Z,100565.75
2022-11-10T10:57:25.371Z,100559.09
2022-11-10T11:00:21.536Z,100552.44
2022-11-10T11:03:26.060Z,100565.66
2022-11-10T11:06:14.914Z,100568.19
2022-11-10T11:09:08.197Z,100564.91
2022-11-10T11:12:01.341Z,100559.66
2022-11-10T11:14:49.143Z,100556.13
2022-11-10T11:17:35.883Z,100558.63
2022-11-10T11:20:26.971Z,100566.63
2022-11-10T11:23:50.926Z,100566.09
2022-11-10T11:26:51.961Z,100561.69
2022-11-10T11:29:47.094Z,100567.16
2022-11-10T11:33:02.921Z,100579.81
2022-11-10T11:35:55.039Z,100575.94
2022-11-10T11:38:44.570Z,100574.75
2022-11-10T11:41:38.420Z,100571.84
2022-11-10T11:44:32.773Z,100577.34
2022-11-10T11:47:28.114Z,100565.91
2022-11-10T11:50:37.747Z,100565.38
2022-11-10T11:53:39.057Z,100569.13
2022-11-10T11:56:27.102Z,100570.41
2022-11-10T11:59:24.421Z,100572.63
2022-11-10T12:02:35.280Z,100569.63
2022-11-10T12:05:37.043Z,100561.91
2022-11-10T12:08:44.212Z,100564.72
2022-11-10T12:11:37.549Z,100566.13
2022-11-10T12:14:33.008Z,100568.78
2022-11-10T12:17:19.034Z,100561.31
2022-11-10T12:20:08.742Z,100563.28
2022-11-10T12:23:17.987Z,100558.44
2022-11-10T12:26:22.683Z,100559.50
2022-11-10T12:29:17.712Z,100561.22
2022-11-10T12:32:25.153Z,100564.31
2022-11-10T12:35:17.051Z,100569.28
2022-11-10T12:38:13.896Z,100569.78
2022-11-10T12:41:03.926Z,100569.53
2022-11-10T12:43:52.722Z,100573.16
2022-11-10T12:46:39.438Z,100567.56
2022-11-10T12:49:28.478Z,100578.78
2022-11-10T12:52:17.954Z,100577.75
2022-11-10T12:55:07.278Z,100578.75
2022-11-10T12:57:53.510Z,100574.94
2022-11-10T13:00:43.937Z,100580.72
2022-11-10T13:03:40.951Z,100586.06
2022-11-10T13:06:27.052Z,100590.66
2022-11-10T13:09:27.087Z,100589.81
2022-11-10T13:12:17.103Z,100593.56
2022-11-10T13:15:24.014Z,100609.22
2022-11-10T13:18:10.745Z,100610.41
2022-11-10T13:20:57.220Z,100606.03
2022-11-10T13:23:43.239Z,100610.09
2022-11-10T13:26:38.804Z,100613.94
2022-11-10T13:29:32.196Z,100623.09
2022-11-10T13:32:28.565Z,100620.28
2022-11-10T13:35:29.629Z,100618.41
2022-11-10T13:38:41.981Z,100624.97
2022-11-10T13:41:28.506Z,100621.56
2022-11-10T13:47:54.949Z,100617.66
2022-11-10T13:50:50.217Z,100621.00
2022-11-10T13:53:45.254Z,100620.25
2022-11-10T13:56:36.755Z,100620.16
2022-11-10T13:59:33.427Z,100622.12
2022-11-10T14:02:31.885Z,100624.66
2022-11-10T14:05:29.893Z,100627.13
2022-11-10T14:08:21.741Z,100635.91
2022-11-10T14:11:15.028Z,100638.34
2022-11-10T14:14:22.579Z,100635.28
2022-11-10T14:17:23.377Z,100633.87
2022-11-10T14:20:27.874Z,100633.37
2022-11-10T14:23:19.521Z,100636.09
2022-11-10T14:26:15.499Z,100637.78
2022-11-10T14:29:20.442Z,100642.84
2022-11-10T14:32:26.943Z,100632.00
2022-11-10T14:35:32.858Z,100646.22
2022-11-10T14:38:21.120Z,100635.25
2022-11-10T14:41:16.726Z,100643.50
2022-11-10T14:44:13.678Z,100637.78
2022-11-10T14:47:19.886Z,100643.03
2022-11-10T14:50:25.655Z,100637.59
2022-11-10T14:53:29.674Z,100645.44
2022-11-10T14:56:19.994Z,100644.53
2022-11-10T14:59:12.494Z,100635.56
2022-11-10T15:02:00.936Z,100627.63
2022-11-10T15:04:50.629Z,100616.03
2022-11-10T15:07:36.738Z,100609.50
2022-11-10T15:10:24.322Z,100611.81
2022-11-10T15:13:13.097Z,100609.53
2022-11-10T15:16:17.372Z,100606.34
2022-11-10T15:19:22.164Z,100620.97
2022-11-10T15:22:16.722Z,100628.22
2022-11-10T15:25:13.650Z,100634.75
2022-11-10T15:28:04.752Z,100642.81
2022-11-10T15:30:51.998Z,100648.97
2022-11-10T15:36:43.429Z,100668.22
2022-11-10T15:39:30.548Z,100671.34
2022-11-10T15:42:24.022Z,100674.81
2022-11-10T15:45:12.762Z,100678.03
2022-11-10T15:47:58.944Z,100682.44
2022-11-10T15:50:49.996Z,100680.03
2022-11-10T15:53:47.267Z,100670.34
2022-11-10T15:56:33.013Z,100669.06
2022-11-10T15:59:21.852Z,100666.03
2022-11-10T16:02:19.384Z,100660.13
2022-11-10T16:05:11.272Z,100663.34
2022-11-10T16:07:57.180Z,100655.31
2022-11-10T16:10:44.713Z,100657.63
2022-11-10T16:13:32.341Z,100660.13
2022-11-10T16:16:19.496Z,100654.59
2022-11-10T16:19:05.560Z,100651.63
2022-11-10T16:21:51.510Z,100654.59
2022-11-10T16:24:38.071Z,100652.88
2022-11-10T16:27:23.845Z,100654.31
2022-11-10T16:30:13.144Z,100651.69
2022-11-10T16:32:59.579Z,100658.28
2022-11-10T16:35:52.454Z,100660.16
2022-11-10T16:38:41.155Z,100651.78
2022-11-10T16:41:27.305Z,100649.34
2022-11-10T16:44:14.221Z,100647.28
2022-11-10T16:47:00.236Z,100658.94
2022-11-10T16:49:46.605Z,100654.59
2022-11-10T16:52:33.077Z,100653.06
2022-11-10T16:55:19.399Z,100651.44
2022-11-10T16:58:05.785Z,100658.09
2022-11-10T17:00:51.932Z,100645.53
2022-11-10T17:03:40.926Z,100648.81
2022-11-10T17:06:27.653Z,100651.13
2022-11-10T17:09:17.929Z,100644.69
2022-11-10T17:12:03.971Z,100653.63
2022-11-10T17:14:50.446Z,100651.38
2022-11-10T17:17:36.856Z,100658.63
2022-11-10T17:20:33.039Z,100655.06
2022-11-10T17:23:21.689Z,100656.41
2022-11-10T17:26:17.597Z,100657.44
2022-11-10T17:29:03.592Z,100651.19
2022-11-10T17:31:53.251Z,100654.91
2022-11-10T17:34:39.396Z,100650.34
2022-11-10T17:37:25.540Z,100644.78
2022-11-10T17:40:17.418Z,100655.41
2022-11-10T17:43:04.236Z,100659.72
2022-11-10T17:45:53.124Z,100664.00
2022-11-10T17:48:38.943Z,100667.37
2022-11-10T17:51:24.988Z,100664.00
2022-11-10T17:54:13.323Z,100666.38
2022-11-10T17:57:02.281Z,100671.94
2022-11-10T17:59:55.205Z,100664.37
2022-11-10T18:02:41.803Z,100661.13
2022-11-10T18:05:28.380Z,100659.06
2022-11-10T18:08:15.547Z,100656.00
2022-11-10T18:11:01.721Z,100653.91
2022-11-10T18:13:47.621Z,100657.69
2022-11-10T18:16:33.593Z,100653.13
2022-11-10T18:19:19.464Z,100652.03
2022-11-10T18:22:05.534Z,100655.41
2022-11-10T18:24:51.159Z,100661.16
2022-11-10T18:27:37.457Z,100652.38
2022-11-10T18:30:23.210Z,100654.66
2022-11-10T18:33:10.244Z,100647.81
2022-11-10T18:35:58.985Z,100657.34
2022-11-10T18:38:45.060Z,100656.94
2022-11-10T18:41:50.171Z,100644.59
2022-11-10T18:44:37.333Z,100651.69
2022-11-10T18:47:23.534Z,100650.09
2022-11-10T18:50:12.637Z,100648.25
2022-11-10T18:52:58.686Z,100646.81
2022-11-10T18:55:53.292Z,100642.91
2022-11-10T18:58:39.225Z,100641.16
2022-11-10T19:01:25.697Z,100648.91
2022-11-10T19:04:12.702Z,100649.91
2022-11-10T19:06:58.770Z,100644.34
2022-11-10T19:09:45.283Z,100643.44
2022-11-10T19:12:34.471Z,100638.00
2022-11-10T19:15:20.416Z,100645.94
2022-11-10T19:18:06.414Z,100647.47
2022-11-10T19:20:52.459Z,100644.28
2022-11-10T19:23:38.469Z,100644.94
2022-11-10T19:26:25.713Z,100649.09
2022-11-10T19:29:11.890Z,100652.28
2022-11-10T19:32:00.659Z,100650.34
2022-11-10T19:34:46.916Z,100651.69
2022-11-10T19:37:35.853Z,100652.34
2022-11-10T19:40:22.235Z,100647.72
2022-11-10T19:43:08.597Z,100640.28
2022-11-10T19:45:54.534Z,100647.66
2022-11-10T19:48:41.274Z,100642.41
2022-11-10T19:51:29.208Z,100639.44
2022-11-10T19:54:15.235Z,100636.16
2022-11-10T19:57:06.659Z,100633.53
2022-11-10T19:59:52.761Z,100642.91
2022-11-10T20:02:44.262Z,100650.19
2022-11-10T20:05:34.506Z,100642.97
2022-11-10T20:08:20.338Z,100641.22
2022-11-10T20:11:07.680Z,100644.00
2022-11-10T20:13:57.171Z,100648.13
2022-11-10T20:16:43.193Z,100639.38
2022-11-10T20:19:41.137Z,100650.19
2022-11-10T20:22:31.037Z,100654.31
2022-11-10T20:25:19.680Z,100644.69
2022-11-10T20:28:08.824Z,100645.78
2022-11-10T20:30:56.382Z,100643.09
2022-11-10T20:33:42.690Z,100643.09
2022-11-10T20:36:30.489Z,100651.84
2022-11-10T20:39:18.056Z,100649.50
2022-11-10T20:42:07.387Z,100650.34
2022-11-10T20:44:53.865Z,100650.53
2022-11-10T20:47:39.961Z,100660.13
2022-11-10T20:50:26.402Z,100653.28
2022-11-10T20:53:13.016Z,100654.81
2022-11-10T20:56:02.985Z,100657.63
2022-11-10T20:58:49.695Z,100654.06
2022-11-10T21:01:37.920Z,100655.75
2022-11-10T21:04:24.303Z,100648.75
2022-11-10T21:07:10.514Z,100647.16
2022-11-10T21:09:56.572Z,100648.66
2022-11-10T21:12:52.270Z,100655.56
2022-11-10T21:15:39.613Z,100645.38
2022-11-10T21:18:27.355Z,100651.63
2022-11-10T21:21:21.254Z,100657.78
2022-11-10T21:24:07.998Z,100654.31
2022-11-10T21:29:58.933Z,100653.63
2022-11-10T21:32:44.763Z,100648.91
2022-11-10T21:35:35.308Z,100650.00
2022-11-10T21:38:23.731Z,100648.31
2022-11-10T21:41:10.023Z,100643.09
2022-11-10T21:43:55.825Z,100647.31
2022-11-10T21:46:41.575Z,100648.13
2022-11-10T21:49:27.431Z,100643.78
2022-11-10T21:52:14.531Z,100643.44
2022-11-10T21:55:00.400Z,100649.34
2022-11-10T21:57:46.499Z,100650.25
2022-11-10T22:00:33.090Z,100647.50
2022-11-10T22:03:19.140Z,100652.12
2022-11-10T22:06:06.123Z,100651.19
2022-11-10T22:08:52.333Z,100662.09
2022-11-10T22:11:56.695Z,100659.28
2022-11-10T22:15:01.525Z,100651.19
2022-11-10T22:18:05.877Z,100641.84
2022-11-10T22:20:52.100Z,100649.16
2022-11-10T22:23:59.762Z,100656.50
2022-11-10T22:26:45.945Z,100655.69
2022-11-10T22:29:32.926Z,100653.91
2022-11-10T22:32:19.178Z,100654.91
2022-11-10T22:35:05.329Z,100653.13
2022-11-10T22:37:52.091Z,100643.44
2022-11-10T22:40:56.634Z,100654.47
2022-11-10T22:44:01.084Z,100651.53
2022-11-10T22:46:48.546Z,100648.81
2022-11-10T22:49:34.683Z,100658.44
2022-11-10T22:52:20.747Z,100655.00
2022-11-10T22:55:06.606Z,100657.53
2022-11-10T22:57:53.247Z,100662.34
2022-11-10T23:00:39.309Z,100657.75
2022-11-10T23:03:25.924Z,100660.37
2022-11-10T23:06:12.423Z,100663.09
2022-11-10T23:08:58.905Z,100668.22
2022-11-10T23:11:44.761Z,100665.38
2022-11-10T23:14:31.298Z,100663.69
2022-11-10T23:17:17.343Z,100659.22
2022-11-10T23:20:04.288Z,100660.22
2022-11-10T23:22:50.498Z,100667.06
2022-11-10T23:25:36.442Z,100661.81
2022-11-10T23:28:26.208Z,100662.66
2022-11-10T23:31:14.528Z,100669.59
2022-11-10T23:34:03.063Z,100663.87
2022-11-10T23:36:48.947Z,100661.25
2022-11-10T23:39:35.408Z,100660.37
2022-11-10T23:42:21.843Z,100660.47
2022-11-10T23:45:08.736Z,100659.03
2022-11-10T23:47:54.899Z,100665.09
2022-11-10T23:50:41.234Z,100664.09
2022-11-10T23:53:27.533Z,100652.03
2022-11-10T23:56:14.213Z,100653.53
2022-11-10T23:59:01.106Z,100654.63
